sensor_id;sensor_type;location;lat;lon;timestamp;P1;durP1;ratioP1;P2;durP2;ratioP2
8982;SDS011;20979;59.850;10.660;2023-06-04T00:01:43;5.77;;;2.47;;
8982;SDS011;20979;59.850;10.660;2023-06-04T00:04:11;5.13;;;2.80;;
8982;SDS011;20979;59.850;10.660;2023-06-04T00:06:41;4.13;;;2.50;;
8982;SDS011;20979;59.850;10.660;2023-06-04T00:09:09;4.40;;;2.40;;
8982;SDS011;20979;59.850;10.660;2023-06-04T00:11:40;6.60;;;2.77;;
8982;SDS011;20979;59.850;10.660;2023-06-04T00:14:27;4.73;;;2.73;;
8982;SDS011;20979;59.850;10.660;2023-06-04T00:19:45;4.83;;;2.50;;
8982;SDS011;20979;59.850;10.660;2023-06-04T00:22:12;5.73;;;2.60;;
8982;SDS011;20979;59.850;10.660;2023-06-04T00:24:40;4.83;;;2.40;;
8982;SDS011;20979;59.850;10.660;2023-06-04T00:27:07;4.80;;;2.50;;
8982;SDS011;20979;59.850;10.660;2023-06-04T00:29:35;5.80;;;2.60;;
8982;SDS011;20979;59.850;10.660;2023-06-04T00:32:03;5.23;;;2.50;;
8982;SDS011;20979;59.850;10.660;2023-06-04T00:34:31;5.23;;;2.60;;
8982;SDS011;20979;59.850;10.660;2023-06-04T00:36:59;6.10;;;2.50;;
8982;SDS011;20979;59.850;10.660;2023-06-04T00:39:36;4.43;;;2.20;;
8982;SDS011;20979;59.850;10.660;2023-06-04T00:42:04;4.00;;;2.47;;
8982;SDS011;20979;59.850;10.660;2023-06-04T00:44:46;3.57;;;2.40;;
8982;SDS011;20979;59.850;10.660;2023-06-04T00:47:23;5.03;;;2.80;;
8982;SDS011;20979;59.850;10.660;2023-06-04T00:49:53;4.17;;;2.80;;
8982;SDS011;20979;59.850;10.660;2023-06-04T00:52:22;7.03;;;2.80;;
8982;SDS011;20979;59.850;10.660;2023-06-04T00:55:03;3.30;;;2.30;;
8982;SDS011;20979;59.850;10.660;2023-06-04T00:57:31;3.53;;;2.63;;
8982;SDS011;20979;59.850;10.660;2023-06-04T00:59:58;6.23;;;2.73;;
8982;SDS011;20979;59.850;10.660;2023-06-04T01:02:26;4.50;;;2.97;;
8982;SDS011;20979;59.850;10.660;2023-06-04T01:04:57;4.70;;;3.10;;
8982;SDS011;20979;59.850;10.660;2023-06-04T01:07:37;7.10;;;3.23;;
8982;SDS011;20979;59.850;10.660;2023-06-04T01:10:10;5.30;;;2.97;;
8982;SDS011;20979;59.850;10.660;2023-06-04T01:12:39;7.30;;;2.93;;
8982;SDS011;20979;59.850;10.660;2023-06-04T01:15:10;4.37;;;2.90;;
8982;SDS011;20979;59.850;10.660;2023-06-04T01:17:39;4.47;;;2.63;;
8982;SDS011;20979;59.850;10.660;2023-06-04T01:20:19;3.60;;;2.50;;
8982;SDS011;20979;59.850;10.660;2023-06-04T01:22:55;5.13;;;2.90;;
8982;SDS011;20979;59.850;10.660;2023-06-04T01:25:38;4.57;;;2.80;;
8982;SDS011;20979;59.850;10.660;2023-06-04T01:28:06;5.63;;;2.87;;
8982;SDS011;20979;59.850;10.660;2023-06-04T01:30:50;5.53;;;2.67;;
8982;SDS011;20979;59.850;10.660;2023-06-04T01:33:38;6.63;;;2.90;;
8982;SDS011;20979;59.850;10.660;2023-06-04T01:36:05;4.23;;;2.70;;
8982;SDS011;20979;59.850;10.660;2023-06-04T01:38:45;5.60;;;2.70;;
8982;SDS011;20979;59.850;10.660;2023-06-04T01:41:51;6.00;;;2.70;;
8982;SDS011;20979;59.850;10.660;2023-06-04T01:44:05;4.70;;;2.73;;
8982;SDS011;20979;59.850;10.660;2023-06-04T01:46:32;5.60;;;2.70;;
8982;SDS011;20979;59.850;10.660;2023-06-04T01:49:00;6.33;;;3.07;;
8982;SDS011;20979;59.850;10.660;2023-06-04T01:51:30;4.30;;;2.80;;
8982;SDS011;20979;59.850;10.660;2023-06-04T01:54:00;6.17;;;2.57;;
8982;SDS011;20979;59.850;10.660;2023-06-04T01:56:27;5.63;;;2.70;;
8982;SDS011;20979;59.850;10.660;2023-06-04T02:01:55;3.03;;;2.60;;
8982;SDS011;20979;59.850;10.660;2023-06-04T02:10:40;4.57;;;2.70;;
8982;SDS011;20979;59.850;10.660;2023-06-04T02:13:38;4.00;;;2.57;;
8982;SDS011;20979;59.850;10.660;2023-06-04T02:15:58;4.27;;;2.63;;
8982;SDS011;20979;59.850;10.660;2023-06-04T02:21:36;5.27;;;2.43;;
8982;SDS011;20979;59.850;10.660;2023-06-04T02:24:03;4.20;;;2.67;;
8982;SDS011;20979;59.850;10.660;2023-06-04T02:29:32;4.00;;;2.37;;
8982;SDS011;20979;59.850;10.660;2023-06-04T02:32:14;3.53;;;2.33;;
8982;SDS011;20979;59.850;10.660;2023-06-04T02:34:42;2.53;;;2.00;;
8982;SDS011;20979;59.850;10.660;2023-06-04T02:37:16;3.57;;;2.30;;
8982;SDS011;20979;59.850;10.660;2023-06-04T02:39:52;2.23;;;2.03;;
8982;SDS011;20979;59.850;10.660;2023-06-04T02:42:32;2.50;;;2.00;;
8982;SDS011;20979;59.850;10.660;2023-06-04T02:45:16;3.53;;;1.90;;
8982;SDS011;20979;59.850;10.660;2023-06-04T02:47:44;2.20;;;2.00;;
8982;SDS011;20979;59.850;10.660;2023-06-04T02:50:12;3.23;;;1.90;;
8982;SDS011;20979;59.850;10.660;2023-06-04T02:52:40;2.10;;;1.90;;
8982;SDS011;20979;59.850;10.660;2023-06-04T02:55:08;2.00;;;1.90;;
8982;SDS011;20979;59.850;10.660;2023-06-04T02:57:40;2.30;;;1.80;;
8982;SDS011;20979;59.850;10.660;2023-06-04T03:00:08;2.77;;;1.90;;
8982;SDS011;20979;59.850;10.660;2023-06-04T03:05:31;5.13;;;1.87;;
8982;SDS011;20979;59.850;10.660;2023-06-04T03:08:00;2.57;;;1.90;;
8982;SDS011;20979;59.850;10.660;2023-06-04T03:10:29;2.07;;;1.70;;
8982;SDS011;20979;59.850;10.660;2023-06-04T03:13:14;1.73;;;1.63;;
8982;SDS011;20979;59.850;10.660;2023-06-04T03:15:41;2.80;;;1.87;;
8982;SDS011;20979;59.850;10.660;2023-06-04T03:18:27;2.03;;;1.60;;
8982;SDS011;20979;59.850;10.660;2023-06-04T03:20:56;1.50;;;1.40;;
8982;SDS011;20979;59.850;10.660;2023-06-04T03:23:27;1.73;;;1.50;;
8982;SDS011;20979;59.850;10.660;2023-06-04T03:25:54;1.50;;;1.37;;
8982;SDS011;20979;59.850;10.660;2023-06-04T03:28:27;1.87;;;1.43;;
8982;SDS011;20979;59.850;10.660;2023-06-04T03:31:12;1.17;;;1.17;;
8982;SDS011;20979;59.850;10.660;2023-06-04T03:33:42;1.60;;;1.50;;
8982;SDS011;20979;59.850;10.660;2023-06-04T03:36:25;1.50;;;1.40;;
8982;SDS011;20979;59.850;10.660;2023-06-04T03:38:57;1.93;;;1.37;;
8982;SDS011;20979;59.850;10.660;2023-06-04T03:41:38;2.03;;;1.53;;
8982;SDS011;20979;59.850;10.660;2023-06-04T03:44:05;1.33;;;1.23;;
8982;SDS011;20979;59.850;10.660;2023-06-04T03:46:33;1.13;;;1.00;;
8982;SDS011;20979;59.850;10.660;2023-06-04T03:49:01;1.40;;;1.30;;
8982;SDS011;20979;59.850;10.660;2023-06-04T03:51:30;2.00;;;1.37;;
8982;SDS011;20979;59.850;10.660;2023-06-04T03:53:58;1.57;;;1.43;;
8982;SDS011;20979;59.850;10.660;2023-06-04T03:56:25;1.47;;;1.37;;
8982;SDS011;20979;59.850;10.660;2023-06-04T03:59:02;1.43;;;1.33;;
8982;SDS011;20979;59.850;10.660;2023-06-04T04:01:33;1.67;;;1.57;;
8982;SDS011;20979;59.850;10.660;2023-06-04T04:04:09;1.83;;;1.63;;
8982;SDS011;20979;59.850;10.660;2023-06-04T04:06:39;1.90;;;1.70;;
8982;SDS011;20979;59.850;10.660;2023-06-04T04:09:15;2.17;;;1.70;;
8982;SDS011;20979;59.850;10.660;2023-06-04T04:11:43;1.63;;;1.53;;
8982;SDS011;20979;59.850;10.660;2023-06-04T04:14:11;1.70;;;1.40;;
8982;SDS011;20979;59.850;10.660;2023-06-04T04:16:38;1.30;;;1.20;;
8982;SDS011;20979;59.850;10.660;2023-06-04T04:19:06;1.37;;;1.27;;
8982;SDS011;20979;59.850;10.660;2023-06-04T04:21:33;2.97;;;1.20;;
8982;SDS011;20979;59.850;10.660;2023-06-04T04:24:04;1.10;;;1.10;;
8982;SDS011;20979;59.850;10.660;2023-06-04T04:26:32;1.13;;;1.00;;
8982;SDS011;20979;59.850;10.660;2023-06-04T04:28:59;1.10;;;1.10;;
8982;SDS011;20979;59.850;10.660;2023-06-04T04:31:27;0.97;;;0.97;;
8982;SDS011;20979;59.850;10.660;2023-06-04T04:33:57;1.50;;;1.03;;
8982;SDS011;20979;59.850;10.660;2023-06-04T04:36:25;1.90;;;1.10;;
8982;SDS011;20979;59.850;10.660;2023-06-04T04:38:58;2.20;;;1.20;;
8982;SDS011;20979;59.850;10.660;2023-06-04T04:41:27;1.17;;;0.93;;
8982;SDS011;20979;59.850;10.660;2023-06-04T04:44:02;1.43;;;1.10;;
8982;SDS011;20979;59.850;10.660;2023-06-04T04:46:36;1.20;;;1.00;;
8982;SDS011;20979;59.850;10.660;2023-06-04T04:49:04;1.00;;;0.93;;
8982;SDS011;20979;59.850;10.660;2023-06-04T04:51:34;1.20;;;1.13;;
8982;SDS011;20979;59.850;10.660;2023-06-04T04:54:02;1.10;;;1.10;;
8982;SDS011;20979;59.850;10.660;2023-06-04T04:56:45;0.80;;;0.80;;
8982;SDS011;20979;59.850;10.660;2023-06-04T05:00:03;2.13;;;1.07;;
8982;SDS011;20979;59.850;10.660;2023-06-04T05:02:36;0.83;;;0.83;;
8982;SDS011;20979;59.850;10.660;2023-06-04T05:05:03;1.20;;;1.10;;
8982;SDS011;20979;59.850;10.660;2023-06-04T05:07:31;1.03;;;1.00;;
8982;SDS011;20979;59.850;10.660;2023-06-04T05:09:59;1.00;;;1.00;;
8982;SDS011;20979;59.850;10.660;2023-06-04T05:12:30;0.90;;;0.90;;
8982;SDS011;20979;59.850;10.660;2023-06-04T05:14:58;1.10;;;1.10;;
8982;SDS011;20979;59.850;10.660;2023-06-04T05:17:26;1.30;;;0.90;;
8982;SDS011;20979;59.850;10.660;2023-06-04T05:20:12;1.00;;;0.90;;
8982;SDS011;20979;59.850;10.660;2023-06-04T05:22:42;1.37;;;0.90;;
8982;SDS011;20979;59.850;10.660;2023-06-04T05:25:20;2.10;;;0.90;;
8982;SDS011;20979;59.850;10.660;2023-06-04T05:27:49;3.03;;;0.93;;
8982;SDS011;20979;59.850;10.660;2023-06-04T05:30:17;3.13;;;1.03;;
8982;SDS011;20979;59.850;10.660;2023-06-04T05:32:44;1.03;;;1.03;;
8982;SDS011;20979;59.850;10.660;2023-06-04T05:35:12;0.90;;;0.90;;
8982;SDS011;20979;59.850;10.660;2023-06-04T05:37:40;0.97;;;0.90;;
8982;SDS011;20979;59.850;10.660;2023-06-04T05:40:08;0.70;;;0.70;;
8982;SDS011;20979;59.850;10.660;2023-06-04T05:42:38;1.07;;;0.93;;
8982;SDS011;20979;59.850;10.660;2023-06-04T05:45:08;2.10;;;0.90;;
8982;SDS011;20979;59.850;10.660;2023-06-04T05:47:35;1.20;;;1.13;;
8982;SDS011;20979;59.850;10.660;2023-06-04T05:50:04;2.37;;;0.90;;
8982;SDS011;20979;59.850;10.660;2023-06-04T05:52:32;1.33;;;1.10;;
8982;SDS011;20979;59.850;10.660;2023-06-04T05:54:59;1.00;;;1.00;;
8982;SDS011;20979;59.850;10.660;2023-06-04T05:57:26;1.03;;;0.93;;
8982;SDS011;20979;59.850;10.660;2023-06-04T05:59:54;0.80;;;0.80;;
8982;SDS011;20979;59.850;10.660;2023-06-04T06:02:22;3.53;;;0.87;;
8982;SDS011;20979;59.850;10.660;2023-06-04T06:04:50;0.80;;;0.80;;
8982;SDS011;20979;59.850;10.660;2023-06-04T06:07:24;1.33;;;0.80;;
8982;SDS011;20979;59.850;10.660;2023-06-04T06:09:51;1.47;;;0.97;;
8982;SDS011;20979;59.850;10.660;2023-06-04T06:12:19;0.83;;;0.83;;
8982;SDS011;20979;59.850;10.660;2023-06-04T06:14:49;0.90;;;0.90;;
8982;SDS011;20979;59.850;10.660;2023-06-04T06:17:16;1.00;;;1.00;;
8982;SDS011;20979;59.850;10.660;2023-06-04T06:19:45;0.97;;;0.90;;
8982;SDS011;20979;59.850;10.660;2023-06-04T06:22:16;0.70;;;0.70;;
8982;SDS011;20979;59.850;10.660;2023-06-04T06:24:53;0.80;;;0.80;;
8982;SDS011;20979;59.850;10.660;2023-06-04T06:27:21;0.67;;;0.67;;
8982;SDS011;20979;59.850;10.660;2023-06-04T06:29:57;1.27;;;0.67;;
8982;SDS011;20979;59.850;10.660;2023-06-04T06:32:30;1.30;;;0.77;;
8982;SDS011;20979;59.850;10.660;2023-06-04T06:35:08;0.80;;;0.80;;
8982;SDS011;20979;59.850;10.660;2023-06-04T06:37:35;0.70;;;0.70;;
8982;SDS011;20979;59.850;10.660;2023-06-04T06:40:17;1.15;;;0.70;;
8982;SDS011;20979;59.850;10.660;2023-06-04T06:42:47;0.70;;;0.70;;
8982;SDS011;20979;59.850;10.660;2023-06-04T06:45:16;0.60;;;0.60;;
8982;SDS011;20979;59.850;10.660;2023-06-04T06:47:46;0.52;;;0.52;;
8982;SDS011;20979;59.850;10.660;2023-06-04T06:50:21;2.47;;;0.60;;
8982;SDS011;20979;59.850;10.660;2023-06-04T06:52:49;0.70;;;0.70;;
8982;SDS011;20979;59.850;10.660;2023-06-04T06:55:17;0.63;;;0.60;;
8982;SDS011;20979;59.850;10.660;2023-06-04T07:00:45;0.65;;;0.65;;
8982;SDS011;20979;59.850;10.660;2023-06-04T07:09:07;0.50;;;0.50;;
8982;SDS011;20979;59.850;10.660;2023-06-04T07:11:48;1.65;;;0.68;;
8982;SDS011;20979;59.850;10.660;2023-06-04T07:14:30;0.60;;;0.60;;
8982;SDS011;20979;59.850;10.660;2023-06-04T07:17:05;0.60;;;0.60;;
8982;SDS011;20979;59.850;10.660;2023-06-04T07:19:33;0.52;;;0.52;;
8982;SDS011;20979;59.850;10.660;2023-06-04T07:22:00;0.68;;;0.68;;
8982;SDS011;20979;59.850;10.660;2023-06-04T07:24:29;0.60;;;0.60;;
8982;SDS011;20979;59.850;10.660;2023-06-04T07:26:57;0.63;;;0.63;;
8982;SDS011;20979;59.850;10.660;2023-06-04T07:29:44;0.80;;;0.80;;
8982;SDS011;20979;59.850;10.660;2023-06-04T07:32:12;0.65;;;0.60;;
8982;SDS011;20979;59.850;10.660;2023-06-04T07:34:39;1.45;;;0.63;;
8982;SDS011;20979;59.850;10.660;2023-06-04T07:37:13;0.50;;;0.40;;
8982;SDS011;20979;59.850;10.660;2023-06-04T07:39:42;0.68;;;0.68;;
8982;SDS011;20979;59.850;10.660;2023-06-04T07:42:09;1.00;;;0.68;;
8982;SDS011;20979;59.850;10.660;2023-06-04T07:44:37;0.88;;;0.50;;
8982;SDS011;20979;59.850;10.660;2023-06-04T07:47:05;0.73;;;0.70;;
8982;SDS011;20979;59.850;10.660;2023-06-04T07:49:32;0.50;;;0.50;;
8982;SDS011;20979;59.850;10.660;2023-06-04T07:52:00;0.70;;;0.70;;
8982;SDS011;20979;59.850;10.660;2023-06-04T07:54:27;0.90;;;0.90;;
8982;SDS011;20979;59.850;10.660;2023-06-04T07:56:56;0.68;;;0.68;;
8982;SDS011;20979;59.850;10.660;2023-06-04T07:59:23;0.90;;;0.77;;
8982;SDS011;20979;59.850;10.660;2023-06-04T08:01:51;0.55;;;0.55;;
8982;SDS011;20979;59.850;10.660;2023-06-04T08:04:18;0.57;;;0.57;;
8982;SDS011;20979;59.850;10.660;2023-06-04T08:06:51;0.60;;;0.60;;
8982;SDS011;20979;59.850;10.660;2023-06-04T08:09:20;0.75;;;0.75;;
8982;SDS011;20979;59.850;10.660;2023-06-04T08:11:48;0.40;;;0.40;;
8982;SDS011;20979;59.850;10.660;2023-06-04T08:14:17;0.40;;;0.40;;
8982;SDS011;20979;59.850;10.660;2023-06-04T08:16:52;1.35;;;0.80;;
8982;SDS011;20979;59.850;10.660;2023-06-04T08:19:20;0.43;;;0.43;;
8982;SDS011;20979;59.850;10.660;2023-06-04T08:21:48;0.68;;;0.68;;
8982;SDS011;20979;59.850;10.660;2023-06-04T08:24:16;0.50;;;0.50;;
8982;SDS011;20979;59.850;10.660;2023-06-04T08:26:59;0.73;;;0.50;;
8982;SDS011;20979;59.850;10.660;2023-06-04T08:29:28;3.00;;;0.50;;
8982;SDS011;20979;59.850;10.660;2023-06-04T08:32:05;0.95;;;0.60;;
8982;SDS011;20979;59.850;10.660;2023-06-04T08:34:33;0.73;;;0.70;;
8982;SDS011;20979;59.850;10.660;2023-06-04T08:37:04;0.55;;;0.55;;
8982;SDS011;20979;59.850;10.660;2023-06-04T08:39:32;0.63;;;0.63;;
8982;SDS011;20979;59.850;10.660;2023-06-04T08:42:00;0.50;;;0.50;;
8982;SDS011;20979;59.850;10.660;2023-06-04T08:44:43;0.73;;;0.73;;
8982;SDS011;20979;59.850;10.660;2023-06-04T08:47:11;0.68;;;0.68;;
8982;SDS011;20979;59.850;10.660;2023-06-04T08:49:40;1.38;;;0.47;;
8982;SDS011;20979;59.850;10.660;2023-06-04T08:52:08;0.73;;;0.60;;
8982;SDS011;20979;59.850;10.660;2023-06-04T08:54:35;0.88;;;0.80;;
8982;SDS011;20979;59.850;10.660;2023-06-04T08:57:03;0.63;;;0.63;;
8982;SDS011;20979;59.850;10.660;2023-06-04T08:59:31;0.80;;;0.57;;
8982;SDS011;20979;59.850;10.660;2023-06-04T09:02:01;1.17;;;0.50;;
8982;SDS011;20979;59.850;10.660;2023-06-04T09:05:09;0.50;;;0.50;;
8982;SDS011;20979;59.850;10.660;2023-06-04T09:07:18;0.82;;;0.80;;
8982;SDS011;20979;59.850;10.660;2023-06-04T09:10:00;2.25;;;0.80;;
8982;SDS011;20979;59.850;10.660;2023-06-04T09:12:29;0.70;;;0.70;;
8982;SDS011;20979;59.850;10.660;2023-06-04T09:15:07;0.60;;;0.60;;
8982;SDS011;20979;59.850;10.660;2023-06-04T09:17:44;0.70;;;0.70;;
8982;SDS011;20979;59.850;10.660;2023-06-04T09:20:24;2.70;;;0.63;;
8982;SDS011;20979;59.850;10.660;2023-06-04T09:22:51;1.48;;;0.57;;
8982;SDS011;20979;59.850;10.660;2023-06-04T09:25:30;4.65;;;1.13;;
8982;SDS011;20979;59.850;10.660;2023-06-04T09:28:10;0.60;;;0.60;;
8982;SDS011;20979;59.850;10.660;2023-06-04T09:30:39;0.68;;;0.68;;
8982;SDS011;20979;59.850;10.660;2023-06-04T09:33:18;0.90;;;0.70;;
8982;SDS011;20979;59.850;10.660;2023-06-04T09:35:52;0.70;;;0.70;;
8982;SDS011;20979;59.850;10.660;2023-06-04T09:38:23;0.85;;;0.85;;
8982;SDS011;20979;59.850;10.660;2023-06-04T09:40:51;0.80;;;0.70;;
8982;SDS011;20979;59.850;10.660;2023-06-04T09:43:22;1.08;;;0.73;;
8982;SDS011;20979;59.850;10.660;2023-06-04T09:45:50;3.00;;;0.80;;
8982;SDS011;20979;59.850;10.660;2023-06-04T09:48:22;0.60;;;0.60;;
8982;SDS011;20979;59.850;10.660;2023-06-04T09:54:07;0.65;;;0.65;;
8982;SDS011;20979;59.850;10.660;2023-06-04T10:00:00;0.80;;;0.80;;
8982;SDS011;20979;59.850;10.660;2023-06-04T10:05:22;1.40;;;0.52;;
8982;SDS011;20979;59.850;10.660;2023-06-04T10:07:51;1.92;;;0.80;;
8982;SDS011;20979;59.850;10.660;2023-06-04T10:11:57;1.02;;;0.85;;
8982;SDS011;20979;59.850;10.660;2023-06-04T10:16:59;1.80;;;0.70;;
8982;SDS011;20979;59.850;10.660;2023-06-04T10:19:36;0.60;;;0.57;;
8982;SDS011;20979;59.850;10.660;2023-06-04T10:22:07;0.85;;;0.85;;
8982;SDS011;20979;59.850;10.660;2023-06-04T10:25:20;2.17;;;0.80;;
8982;SDS011;20979;59.850;10.660;2023-06-04T10:28:02;0.65;;;0.60;;
8982;SDS011;20979;59.850;10.660;2023-06-04T10:30:46;2.63;;;0.73;;
8982;SDS011;20979;59.850;10.660;2023-06-04T10:33:16;1.15;;;0.90;;
8982;SDS011;20979;59.850;10.660;2023-06-04T10:36:15;0.90;;;0.57;;
8982;SDS011;20979;59.850;10.660;2023-06-04T10:39:11;0.95;;;0.73;;
8982;SDS011;20979;59.850;10.660;2023-06-04T10:45:00;0.82;;;0.82;;
8982;SDS011;20979;59.850;10.660;2023-06-04T10:56:26;1.63;;;0.80;;
8982;SDS011;20979;59.850;10.660;2023-06-04T10:59:16;2.40;;;0.70;;
8982;SDS011;20979;59.850;10.660;2023-06-04T11:01:43;0.75;;;0.75;;
8982;SDS011;20979;59.850;10.660;2023-06-04T11:04:28;0.63;;;0.63;;
8982;SDS011;20979;59.850;10.660;2023-06-04T11:07:02;0.77;;;0.77;;
8982;SDS011;20979;59.850;10.660;2023-06-04T11:09:34;0.75;;;0.75;;
8982;SDS011;20979;59.850;10.660;2023-06-04T11:14:55;0.93;;;0.60;;
8982;SDS011;20979;59.850;10.660;2023-06-04T11:20:17;0.75;;;0.70;;
8982;SDS011;20979;59.850;10.660;2023-06-04T11:25:31;0.70;;;0.70;;
8982;SDS011;20979;59.850;10.660;2023-06-04T11:26:13;0.57;;;0.57;;
8982;SDS011;20979;59.850;10.660;2023-06-04T11:28:41;1.35;;;0.77;;
8982;SDS011;20979;59.850;10.660;2023-06-04T11:37:16;0.45;;;0.45;;
8982;SDS011;20979;59.850;10.660;2023-06-04T11:39:58;1.00;;;0.80;;
8982;SDS011;20979;59.850;10.660;2023-06-04T11:45:48;0.70;;;0.70;;
8982;SDS011;20979;59.850;10.660;2023-06-04T11:49:59;1.05;;;0.95;;
8982;SDS011;20979;59.850;10.660;2023-06-04T11:51:47;0.80;;;0.80;;
8982;SDS011;20979;59.850;10.660;2023-06-04T11:57:10;0.60;;;0.60;;
8982;SDS011;20979;59.850;10.660;2023-06-04T11:59:38;1.75;;;0.77;;
8982;SDS011;20979;59.850;10.660;2023-06-04T12:02:11;1.58;;;0.90;;
8982;SDS011;20979;59.850;10.660;2023-06-04T12:37:00;1.40;;;0.85;;
8982;SDS011;20979;59.850;10.660;2023-06-04T12:39:28;1.00;;;0.90;;
8982;SDS011;20979;59.850;10.660;2023-06-04T12:42:14;1.23;;;1.10;;
8982;SDS011;20979;59.850;10.660;2023-06-04T12:44:42;1.02;;;1.02;;
8982;SDS011;20979;59.850;10.660;2023-06-04T12:47:12;1.63;;;0.80;;
8982;SDS011;20979;59.850;10.660;2023-06-04T12:49:42;0.70;;;0.70;;
8982;SDS011;20979;59.850;10.660;2023-06-04T12:52:23;0.82;;;0.82;;
8982;SDS011;20979;59.850;10.660;2023-06-04T13:00:25;0.70;;;0.70;;
8982;SDS011;20979;59.850;10.660;2023-06-04T13:03:07;0.90;;;0.90;;
8982;SDS011;20979;59.850;10.660;2023-06-04T13:11:17;0.95;;;0.70;;
8982;SDS011;20979;59.850;10.660;2023-06-04T13:14:04;1.27;;;0.90;;
8982;SDS011;20979;59.850;10.660;2023-06-04T13:16:32;1.00;;;0.90;;
8982;SDS011;20979;59.850;10.660;2023-06-04T13:24:23;1.25;;;0.80;;
8982;SDS011;20979;59.850;10.660;2023-06-04T13:30:56;1.00;;;0.90;;
8982;SDS011;20979;59.850;10.660;2023-06-04T13:33:26;0.63;;;0.63;;
8982;SDS011;20979;59.850;10.660;2023-06-04T13:35:54;1.17;;;0.70;;
8982;SDS011;20979;59.850;10.660;2023-06-04T13:38:21;0.80;;;0.80;;
8982;SDS011;20979;59.850;10.660;2023-06-04T13:40:49;1.63;;;1.00;;
8982;SDS011;20979;59.850;10.660;2023-06-04T13:43:16;0.77;;;0.77;;
8982;SDS011;20979;59.850;10.660;2023-06-04T13:46:30;0.80;;;0.80;;
8982;SDS011;20979;59.850;10.660;2023-06-04T13:48:40;0.63;;;0.63;;
8982;SDS011;20979;59.850;10.660;2023-06-04T13:51:08;0.93;;;0.80;;
8982;SDS011;20979;59.850;10.660;2023-06-04T13:53:38;1.58;;;0.80;;
8982;SDS011;20979;59.850;10.660;2023-06-04T13:56:06;1.02;;;0.90;;
8982;SDS011;20979;59.850;10.660;2023-06-04T14:01:16;0.90;;;0.90;;
8982;SDS011;20979;59.850;10.660;2023-06-04T14:03:45;2.13;;;1.05;;
8982;SDS011;20979;59.850;10.660;2023-06-04T14:06:29;1.35;;;1.25;;
8982;SDS011;20979;59.850;10.660;2023-06-04T14:12:07;2.85;;;1.08;;
8982;SDS011;20979;59.850;10.660;2023-06-04T14:14:38;0.90;;;0.90;;
8982;SDS011;20979;59.850;10.660;2023-06-04T14:17:06;1.60;;;1.50;;
8982;SDS011;20979;59.850;10.660;2023-06-04T14:19:42;0.82;;;0.82;;
8982;SDS011;20979;59.850;10.660;2023-06-04T14:22:24;4.68;;;4.38;;
8982;SDS011;20979;59.850;10.660;2023-06-04T14:24:52;0.85;;;0.85;;
8982;SDS011;20979;59.850;10.660;2023-06-04T14:27:20;0.90;;;0.90;;
8982;SDS011;20979;59.850;10.660;2023-06-04T14:29:47;0.52;;;0.52;;
8982;SDS011;20979;59.850;10.660;2023-06-04T14:32:21;1.50;;;0.80;;
8982;SDS011;20979;59.850;10.660;2023-06-04T14:34:54;0.88;;;0.88;;
8982;SDS011;20979;59.850;10.660;2023-06-04T14:37:25;1.80;;;1.70;;
8982;SDS011;20979;59.850;10.660;2023-06-04T14:39:56;0.95;;;0.95;;
8982;SDS011;20979;59.850;10.660;2023-06-04T14:42:27;1.58;;;0.80;;
8982;SDS011;20979;59.850;10.660;2023-06-04T14:44:54;1.00;;;1.00;;
8982;SDS011;20979;59.850;10.660;2023-06-04T14:47:22;1.00;;;0.90;;
8982;SDS011;20979;59.850;10.660;2023-06-04T14:56:19;1.10;;;0.90;;
8982;SDS011;20979;59.850;10.660;2023-06-04T14:58:47;0.80;;;0.80;;
8982;SDS011;20979;59.850;10.660;2023-06-04T15:01:15;3.08;;;2.88;;
8982;SDS011;20979;59.850;10.660;2023-06-04T15:03:49;2.10;;;2.00;;
8982;SDS011;20979;59.850;10.660;2023-06-04T15:06:16;0.85;;;0.85;;
8982;SDS011;20979;59.850;10.660;2023-06-04T15:08:44;0.95;;;0.88;;
8982;SDS011;20979;59.850;10.660;2023-06-04T15:23:28;1.42;;;1.33;;
8982;SDS011;20979;59.850;10.660;2023-06-04T15:26:15;0.88;;;0.88;;
8982;SDS011;20979;59.850;10.660;2023-06-04T15:28:43;0.90;;;0.90;;
8982;SDS011;20979;59.850;10.660;2023-06-04T15:31:11;0.90;;;0.90;;
8982;SDS011;20979;59.850;10.660;2023-06-04T15:33:38;5.78;;;5.18;;
8982;SDS011;20979;59.850;10.660;2023-06-04T15:36:06;1.20;;;1.20;;
8982;SDS011;20979;59.850;10.660;2023-06-04T15:38:37;1.05;;;0.95;;
8982;SDS011;20979;59.850;10.660;2023-06-04T15:41:08;0.70;;;0.70;;
8982;SDS011;20979;59.850;10.660;2023-06-04T15:43:35;0.80;;;0.80;;
8982;SDS011;20979;59.850;10.660;2023-06-04T15:46:05;1.00;;;1.00;;
8982;SDS011;20979;59.850;10.660;2023-06-04T15:51:33;1.30;;;1.05;;
8982;SDS011;20979;59.850;10.660;2023-06-04T15:54:05;1.65;;;1.55;;
8982;SDS011;20979;59.850;10.660;2023-06-04T15:56:47;0.90;;;0.90;;
8982;SDS011;20979;59.850;10.660;2023-06-04T15:59:15;1.48;;;1.23;;
8982;SDS011;20979;59.850;10.660;2023-06-04T16:01:42;1.85;;;0.93;;
8982;SDS011;20979;59.850;10.660;2023-06-04T16:04:10;0.93;;;0.93;;
8982;SDS011;20979;59.850;10.660;2023-06-04T16:06:38;1.30;;;1.20;;
8982;SDS011;20979;59.850;10.660;2023-06-04T16:09:16;1.08;;;1.00;;
8982;SDS011;20979;59.850;10.660;2023-06-04T16:11:45;1.75;;;1.00;;
8982;SDS011;20979;59.850;10.660;2023-06-04T16:14:12;1.17;;;1.08;;
8982;SDS011;20979;59.850;10.660;2023-06-04T16:16:50;1.30;;;1.20;;
8982;SDS011;20979;59.850;10.660;2023-06-04T16:19:21;0.82;;;0.82;;
8982;SDS011;20979;59.850;10.660;2023-06-04T16:27:48;1.45;;;0.82;;
8982;SDS011;20979;59.850;10.660;2023-06-04T16:33:15;1.00;;;0.93;;
8982;SDS011;20979;59.850;10.660;2023-06-04T16:41:59;0.68;;;0.68;;
8982;SDS011;20979;59.850;10.660;2023-06-04T16:44:31;0.73;;;0.73;;
8982;SDS011;20979;59.850;10.660;2023-06-04T16:47:08;1.73;;;1.10;;
8982;SDS011;20979;59.850;10.660;2023-06-04T16:52:35;3.38;;;0.95;;
8982;SDS011;20979;59.850;10.660;2023-06-04T16:58:03;1.00;;;1.00;;
8982;SDS011;20979;59.850;10.660;2023-06-04T17:00:32;1.10;;;0.80;;
8982;SDS011;20979;59.850;10.660;2023-06-04T17:02:59;0.80;;;0.80;;
8982;SDS011;20979;59.850;10.660;2023-06-04T17:05:28;1.20;;;1.10;;
8982;SDS011;20979;59.850;10.660;2023-06-04T17:07:56;1.23;;;1.13;;
8982;SDS011;20979;59.850;10.660;2023-06-04T17:10:27;1.33;;;1.23;;
8982;SDS011;20979;59.850;10.660;2023-06-04T17:12:57;1.30;;;1.20;;
8982;SDS011;20979;59.850;10.660;2023-06-04T17:15:39;0.93;;;0.93;;
8982;SDS011;20979;59.850;10.660;2023-06-04T17:18:07;1.10;;;1.02;;
8982;SDS011;20979;59.850;10.660;2023-06-04T17:23:19;2.00;;;1.27;;
8982;SDS011;20979;59.850;10.660;2023-06-04T17:25:49;1.23;;;0.90;;
8982;SDS011;20979;59.850;10.660;2023-06-04T17:28:16;1.02;;;1.02;;
8982;SDS011;20979;59.850;10.660;2023-06-04T17:30:45;1.10;;;1.00;;
8982;SDS011;20979;59.850;10.660;2023-06-04T17:33:30;1.85;;;1.25;;
8982;SDS011;20979;59.850;10.660;2023-06-04T17:35:58;1.25;;;1.05;;
8982;SDS011;20979;59.850;10.660;2023-06-04T17:38:25;0.98;;;0.98;;
8982;SDS011;20979;59.850;10.660;2023-06-04T17:40:52;0.90;;;0.90;;
8982;SDS011;20979;59.850;10.660;2023-06-04T17:43:27;0.98;;;0.98;;
8982;SDS011;20979;59.850;10.660;2023-06-04T17:45:57;2.08;;;1.30;;
8982;SDS011;20979;59.850;10.660;2023-06-04T17:48:25;3.25;;;1.20;;
8982;SDS011;20979;59.850;10.660;2023-06-04T17:50:52;1.00;;;1.00;;
8982;SDS011;20979;59.850;10.660;2023-06-04T17:53:19;1.33;;;0.80;;
8982;SDS011;20979;59.850;10.660;2023-06-04T17:55:47;2.05;;;0.80;;
8982;SDS011;20979;59.850;10.660;2023-06-04T17:58:19;2.95;;;0.90;;
8982;SDS011;20979;59.850;10.660;2023-06-04T18:00:49;3.55;;;0.80;;
8982;SDS011;20979;59.850;10.660;2023-06-04T18:03:18;1.25;;;0.88;;
8982;SDS011;20979;59.850;10.660;2023-06-04T18:05:56;1.00;;;1.00;;
8982;SDS011;20979;59.850;10.660;2023-06-04T18:08:24;0.80;;;0.80;;
8982;SDS011;20979;59.850;10.660;2023-06-04T18:10:51;1.00;;;0.90;;
8982;SDS011;20979;59.850;10.660;2023-06-04T18:13:29;0.90;;;0.90;;
8982;SDS011;20979;59.850;10.660;2023-06-04T18:15:56;3.25;;;1.00;;